createdAt,value
2022-10-24T00:00:00.861Z,0.60
2022-10-24T00:02:29.160Z,1.37
2022-10-24T00:05:00.428Z,1.10
2022-10-24T00:07:28.922Z,0.70
2022-10-24T00:09:58.526Z,0.83
2022-10-24T00:12:28.414Z,1.20
2022-10-24T00:15:00.388Z,0.80
2022-10-24T00:17:28.694Z,0.70
2022-10-24T00:19:58.949Z,1.23
2022-10-24T00:22:29.109Z,0.90
2022-10-24T00:24:58.815Z,1.23
2022-10-24T00:27:28.666Z,1.03
2022-10-24T00:29:58.774Z,1.00
2022-10-24T00:32:30.297Z,0.67
2022-10-24T00:34:58.573Z,0.93
2022-10-24T00:37:26.827Z,1.23
2022-10-24T00:39:56.715Z,0.73
2022-10-24T00:42:26.364Z,0.80
2022-10-24T00:44:54.889Z,0.90
2022-10-24T00:47:25.367Z,1.00
2022-10-24T00:50:00.618Z,1.10
2022-10-24T00:52:30.863Z,0.90
2022-10-24T00:55:00.697Z,1.23
2022-10-24T00:57:34.733Z,0.67
2022-10-24T01:00:06.328Z,0.90
2022-10-24T01:02:34.816Z,0.90
2022-10-24T01:05:05.672Z,1.00
2022-10-24T01:07:39.621Z,1.00
2022-10-24T01:10:15.251Z,0.80
2022-10-24T01:12:53.489Z,1.00
2022-10-24T01:15:26.927Z,1.07
2022-10-24T01:18:00.625Z,1.20
2022-10-24T01:20:37.847Z,1.17
2022-10-24T01:23:15.929Z,1.13
2022-10-24T01:25:52.364Z,1.27
2022-10-24T01:28:23.979Z,1.37
2022-10-24T01:30:56.709Z,0.97
2022-10-24T01:33:27.140Z,1.40
2022-10-24T01:35:56.896Z,0.90
2022-10-24T01:38:27.688Z,0.80
2022-10-24T01:40:57.790Z,0.77
2022-10-24T01:43:32.332Z,1.10
2022-10-24T01:46:05.803Z,1.23
2022-10-24T01:48:36.095Z,1.50
2022-10-24T01:51:05.647Z,0.60
2022-10-24T01:53:33.968Z,1.40
2022-10-24T01:56:02.699Z,1.67
2022-10-24T01:58:30.962Z,0.80
2022-10-24T02:01:01.336Z,0.87
2022-10-24T02:03:32.478Z,1.00
2022-10-24T02:06:03.164Z,1.30
2022-10-24T02:08:33.825Z,1.30
2022-10-24T02:11:03.946Z,0.90
2022-10-24T02:13:34.109Z,1.50
2022-10-24T02:16:03.097Z,1.37
2022-10-24T02:18:34.470Z,0.77
2022-10-24T02:21:07.883Z,1.63
2022-10-24T02:23:39.572Z,1.10
2022-10-24T02:26:09.850Z,0.90
2022-10-24T02:28:40.606Z,1.47
2022-10-24T02:31:10.457Z,1.37
2022-10-24T02:33:40.979Z,2.50
2022-10-24T02:36:11.051Z,1.70
2022-10-24T02:38:40.979Z,1.63
2022-10-24T02:41:10.993Z,1.33
2022-10-24T02:43:40.257Z,1.40
2022-10-24T02:46:08.807Z,1.20
2022-10-24T02:48:38.657Z,1.30
2022-10-24T02:51:09.055Z,2.17
2022-10-24T02:53:38.326Z,1.30
2022-10-24T02:56:06.833Z,2.30
2022-10-24T02:58:35.112Z,3.07
2022-10-24T03:01:03.427Z,1.43
2022-10-24T03:03:31.884Z,1.50
2022-10-24T03:06:00.115Z,1.60
2022-10-24T03:08:29.743Z,1.73
2022-10-24T03:10:57.997Z,2.00
2022-10-24T03:13:26.273Z,1.00
2022-10-24T03:15:54.507Z,1.10
2022-10-24T03:18:22.738Z,1.93
2022-10-24T03:20:51.042Z,3.33
2022-10-24T03:23:19.693Z,1.47
2022-10-24T03:25:49.460Z,1.50
2022-10-24T03:28:17.698Z,1.50
2022-10-24T03:30:45.937Z,1.50
2022-10-24T03:33:14.350Z,2.00
2022-10-24T03:35:42.607Z,1.80
2022-10-24T03:38:10.850Z,1.73
2022-10-24T03:40:39.744Z,2.10
2022-10-24T03:43:09.425Z,1.43
2022-10-24T03:45:38.043Z,1.50
2022-10-24T03:48:06.537Z,1.77
2022-10-24T03:50:35.205Z,1.93
2022-10-24T03:53:03.744Z,1.50
2022-10-24T03:55:32.011Z,1.50
2022-10-24T03:58:00.233Z,1.63
2022-10-24T04:00:29.880Z,0.93
2022-10-24T04:02:58.236Z,1.60
2022-10-24T04:05:26.582Z,1.40
2022-10-24T04:07:54.861Z,1.37
2022-10-24T04:10:23.148Z,1.20
2022-10-24T04:12:51.519Z,1.87
2022-10-24T04:15:19.800Z,1.63
2022-10-24T04:17:49.424Z,1.40
2022-10-24T04:20:19.878Z,1.33
2022-10-24T04:22:48.294Z,2.50
2022-10-24T04:25:16.591Z,1.80
2022-10-24T04:27:45.506Z,1.77
2022-10-24T04:30:16.683Z,1.10
2022-10-24T04:32:45.661Z,2.23
2022-10-24T04:35:15.532Z,1.97
2022-10-24T04:37:43.761Z,1.77
2022-10-24T04:40:12.412Z,1.60
2022-10-24T04:42:40.645Z,1.33
2022-10-24T04:45:09.751Z,2.10
2022-10-24T04:47:38.039Z,1.47
2022-10-24T04:50:06.896Z,1.10
2022-10-24T04:52:36.521Z,1.30
2022-10-24T04:55:05.012Z,1.20
2022-10-24T04:57:33.276Z,1.10
2022-10-24T05:00:01.516Z,1.70
2022-10-24T05:02:29.871Z,1.43
2022-10-24T05:04:58.195Z,1.60
2022-10-24T05:07:26.425Z,1.33
2022-10-24T05:09:56.028Z,1.60
2022-10-24T05:12:24.282Z,1.60
2022-10-24T05:14:52.532Z,1.57
2022-10-24T05:17:20.783Z,1.13
2022-10-24T05:19:49.223Z,1.60
2022-10-24T05:22:17.481Z,1.37
2022-10-24T05:24:45.735Z,1.33
2022-10-24T05:27:15.379Z,2.40
2022-10-24T05:29:43.612Z,0.90
2022-10-24T05:32:11.867Z,1.83
2022-10-24T05:34:40.117Z,1.90
2022-10-24T05:37:08.376Z,1.37
2022-10-24T05:39:36.918Z,1.53
2022-10-24T05:42:05.642Z,1.10
2022-10-24T05:44:35.326Z,0.90
2022-10-24T05:47:03.563Z,1.23
2022-10-24T05:49:31.800Z,0.83
2022-10-24T05:52:00.056Z,1.10
2022-10-24T05:54:33.441Z,1.10
2022-10-24T05:57:10.970Z,0.80
2022-10-24T05:59:40.580Z,1.17
2022-10-24T06:02:09.588Z,1.33
2022-10-24T06:04:37.888Z,1.60
2022-10-24T06:07:06.121Z,0.80
2022-10-24T06:09:34.381Z,1.00
2022-10-24T06:12:02.661Z,1.03
2022-10-24T06:14:30.909Z,1.30
2022-10-24T06:17:00.544Z,0.60
2022-10-24T06:19:28.798Z,1.43
2022-10-24T06:21:57.061Z,1.37
2022-10-24T06:24:25.361Z,1.23
2022-10-24T06:26:53.644Z,1.20
2022-10-24T06:29:22.060Z,1.63
2022-10-24T06:31:50.338Z,1.03
2022-10-24T06:36:49.179Z,1.83
2022-10-24T06:39:17.418Z,1.53
2022-10-24T06:41:45.676Z,1.40
2022-10-24T06:44:13.931Z,1.20
2022-10-24T06:46:42.267Z,1.70
2022-10-24T06:49:10.936Z,1.70
2022-10-24T06:51:40.584Z,1.50
2022-10-24T06:54:08.895Z,2.70
2022-10-24T06:56:37.338Z,1.77
2022-10-24T06:59:09.691Z,2.87
2022-10-24T07:01:38.078Z,2.80
2022-10-24T07:04:06.478Z,1.90
2022-10-24T07:06:34.986Z,2.67
2022-10-24T07:09:05.490Z,2.27
2022-10-24T07:11:34.474Z,2.80
2022-10-24T07:14:05.637Z,2.93
2022-10-24T07:16:36.618Z,1.20
2022-10-24T07:19:05.288Z,1.07
2022-10-24T07:21:34.526Z,1.90
2022-10-24T07:24:03.221Z,2.50
2022-10-24T07:26:32.990Z,1.50
2022-10-24T07:29:22.019Z,1.30
2022-10-24T07:31:50.258Z,1.67
2022-10-24T07:34:18.671Z,1.40
2022-10-24T07:36:46.950Z,1.33
2022-10-24T07:39:15.373Z,1.87
2022-10-24T07:41:43.981Z,1.50
2022-10-24T07:44:12.409Z,1.43
2022-10-24T07:46:42.396Z,1.60
2022-10-24T07:49:10.944Z,1.63
2022-10-24T07:51:39.207Z,1.70
2022-10-24T07:54:07.523Z,1.53
2022-10-24T07:56:35.802Z,1.73
2022-10-24T07:59:09.274Z,1.70
2022-10-24T08:01:38.029Z,1.40
2022-10-24T08:04:07.765Z,1.17
2022-10-24T08:06:36.082Z,1.40
2022-10-24T08:09:04.860Z,1.13
2022-10-24T08:11:33.676Z,1.10
2022-10-24T08:14:03.390Z,1.30
2022-10-24T08:16:31.935Z,1.70
2022-10-24T08:19:00.284Z,1.73
2022-10-24T08:21:31.269Z,1.00
2022-10-24T08:23:59.557Z,1.53
2022-10-24T08:26:28.123Z,1.73
2022-10-24T08:28:57.587Z,1.10
2022-10-24T08:31:27.261Z,1.43
2022-10-24T08:33:56.391Z,2.30
2022-10-24T08:36:25.795Z,1.30
2022-10-24T08:38:55.409Z,1.20
2022-10-24T08:41:29.446Z,1.10
2022-10-24T08:43:58.296Z,1.20
2022-10-24T08:46:35.007Z,1.60
2022-10-24T08:49:05.131Z,1.30
2022-10-24T08:51:38.626Z,2.20
2022-10-24T08:54:11.310Z,1.30
2022-10-24T08:56:39.812Z,1.43
2022-10-24T08:59:08.736Z,1.57
2022-10-24T09:01:40.284Z,2.60
2022-10-24T09:04:11.073Z,1.70
2022-10-24T09:06:39.487Z,1.73
2022-10-24T09:09:13.768Z,1.40
2022-10-24T09:11:45.192Z,1.00
2022-10-24T09:14:14.643Z,1.10
2022-10-24T09:16:43.563Z,1.30
2022-10-24T09:19:14.795Z,1.20
2022-10-24T09:21:43.817Z,2.80
2022-10-24T09:24:19.257Z,1.30
2022-10-24T09:26:47.769Z,1.40
2022-10-24T09:29:16.042Z,1.90
2022-10-24T09:31:44.333Z,1.83
2022-10-24T09:34:13.303Z,1.00
2022-10-24T09:36:41.706Z,1.30
2022-10-24T09:39:28.240Z,1.37
2022-10-24T09:41:56.946Z,1.60
2022-10-24T09:44:36.532Z,1.93
2022-10-24T09:47:06.423Z,1.90
2022-10-24T09:49:36.683Z,1.60
2022-10-24T09:52:07.048Z,1.30
2022-10-24T09:54:37.618Z,1.90
2022-10-24T09:57:09.169Z,1.37
2022-10-24T09:59:38.686Z,1.03
2022-10-24T10:02:19.247Z,1.53
2022-10-24T10:04:48.313Z,1.37
2022-10-24T10:07:18.279Z,1.73
2022-10-24T10:09:56.459Z,1.90
2022-10-24T10:12:29.506Z,1.60
2022-10-24T10:14:57.822Z,2.13
2022-10-24T10:17:27.387Z,2.63
2022-10-24T10:19:56.326Z,2.33
2022-10-24T10:22:26.006Z,2.77
2022-10-24T10:24:56.359Z,1.10
2022-10-24T10:27:30.649Z,1.33
2022-10-24T10:30:16.770Z,1.60
2022-10-24T10:32:49.266Z,1.50
2022-10-24T10:35:20.009Z,0.90
2022-10-24T10:37:50.333Z,3.03
2022-10-24T10:40:25.505Z,1.20
2022-10-24T10:43:05.891Z,1.20
2022-10-24T10:45:36.777Z,2.00
2022-10-24T10:48:10.345Z,1.10
2022-10-24T10:50:41.081Z,1.07
2022-10-24T10:53:22.281Z,0.73
2022-10-24T10:55:53.937Z,1.63
2022-10-24T10:58:29.431Z,1.53
2022-10-24T11:01:02.107Z,1.73
2022-10-24T11:03:35.816Z,1.30
2022-10-24T11:06:12.668Z,1.20
2022-10-24T11:08:50.913Z,1.07
2022-10-24T11:11:23.287Z,0.93
2022-10-24T11:13:53.873Z,1.00
2022-10-24T11:16:23.705Z,1.00
2022-10-24T11:18:53.500Z,0.60
2022-10-24T11:21:23.265Z,1.60
2022-10-24T11:23:54.052Z,0.90
2022-10-24T11:26:27.845Z,0.67
2022-10-24T11:28:58.884Z,1.07
2022-10-24T11:31:30.440Z,1.57
2022-10-24T11:34:00.185Z,1.10
2022-10-24T11:36:31.934Z,1.07
2022-10-24T11:39:03.943Z,1.20
2022-10-24T11:41:37.290Z,0.90
2022-10-24T11:44:12.101Z,0.60
2022-10-24T11:46:43.532Z,1.63
2022-10-24T11:49:14.713Z,1.10
2022-10-24T11:51:45.387Z,1.17
2022-10-24T11:54:16.339Z,0.90
2022-10-24T11:56:48.929Z,0.90
2022-10-24T11:59:21.485Z,1.03
2022-10-24T12:01:54.756Z,0.60
2022-10-24T12:04:40.212Z,0.70
2022-10-24T12:07:41.681Z,1.00
2022-10-24T12:10:19.308Z,0.80
2022-10-24T12:12:57.576Z,1.00
2022-10-24T12:15:32.348Z,1.20
2022-10-24T12:18:05.598Z,0.93
2022-10-24T12:20:34.172Z,0.90
2022-10-24T12:23:03.108Z,1.10
2022-10-24T12:25:33.275Z,0.73
2022-10-24T12:28:03.872Z,1.17
2022-10-24T12:30:33.986Z,0.90
2022-10-24T12:33:10.414Z,0.90
2022-10-24T12:35:49.224Z,0.87
2022-10-24T12:38:19.938Z,0.50
2022-10-24T12:40:51.584Z,0.60
2022-10-24T12:43:32.230Z,0.63
2022-10-24T12:46:01.426Z,4.90
2022-10-24T12:48:33.536Z,0.77
2022-10-24T12:51:03.860Z,0.60
2022-10-24T12:53:34.271Z,0.70
2022-10-24T12:56:13.266Z,0.80
2022-10-24T12:58:43.734Z,0.80
2022-10-24T13:01:13.537Z,0.83
2022-10-24T13:03:52.973Z,0.60
2022-10-24T13:06:25.498Z,0.77
2022-10-24T13:09:00.213Z,0.67
2022-10-24T13:11:34.413Z,0.90
2022-10-24T13:14:13.173Z,1.10
2022-10-24T13:16:45.514Z,0.93
2022-10-24T13:19:17.081Z,1.23
2022-10-24T13:21:47.231Z,0.70
2022-10-24T13:24:25.736Z,1.30
2022-10-24T13:27:16.109Z,0.90
2022-10-24T13:30:05.817Z,0.87
2022-10-24T13:32:36.015Z,0.97
2022-10-24T13:35:05.543Z,1.07
2022-10-24T13:37:36.638Z,0.90
2022-10-24T13:40:10.216Z,0.70
2022-10-24T13:42:40.227Z,1.20
2022-10-24T13:45:20.981Z,0.70
2022-10-24T13:47:52.547Z,1.00
2022-10-24T13:50:23.887Z,1.20
2022-10-24T13:52:54.867Z,1.10
2022-10-24T13:55:25.933Z,0.87
2022-10-24T13:57:55.916Z,0.87
2022-10-24T14:00:27.267Z,0.70
2022-10-24T14:02:57.922Z,0.93
2022-10-24T14:05:30.904Z,0.77
2022-10-24T14:07:59.479Z,0.83
2022-10-24T14:10:28.262Z,1.97
2022-10-24T14:12:57.903Z,1.30
2022-10-24T14:15:29.210Z,2.00
2022-10-24T14:18:02.024Z,1.00
2022-10-24T14:20:31.505Z,0.97
2022-10-24T14:22:59.842Z,1.20
2022-10-24T14:25:30.064Z,1.37
2022-10-24T14:28:00.362Z,1.03
2022-10-24T14:30:34.437Z,1.53
2022-10-24T14:33:15.705Z,1.00
2022-10-24T14:35:44.136Z,1.20
2022-10-24T14:38:18.907Z,0.90
2022-10-24T14:40:49.483Z,1.43
2022-10-24T14:43:27.794Z,1.10
2022-10-24T14:46:11.317Z,0.60
2022-10-24T14:48:40.306Z,0.93
2022-10-24T14:51:10.999Z,0.77
2022-10-24T14:53:39.908Z,0.97
2022-10-24T14:56:18.085Z,0.77
2022-10-24T14:58:46.353Z,0.97
2022-10-24T15:01:19.628Z,0.77
2022-10-24T15:03:57.461Z,1.00
2022-10-24T15:06:27.249Z,0.90
2022-10-24T15:09:13.118Z,0.73
2022-10-24T15:11:42.113Z,1.03
2022-10-24T15:14:25.213Z,1.00
2022-10-24T15:16:54.860Z,0.90
2022-10-24T15:19:23.131Z,1.40
2022-10-24T15:21:51.426Z,1.13
2022-10-24T15:24:22.115Z,1.10
2022-10-24T15:26:50.374Z,0.77
2022-10-24T15:29:22.371Z,1.00
2022-10-24T15:31:51.693Z,1.07
2022-10-24T15:34:22.106Z,1.00
2022-10-24T15:36:51.343Z,1.40
2022-10-24T15:39:21.233Z,0.83
2022-10-24T15:41:49.777Z,0.87
2022-10-24T15:44:19.046Z,1.50
2022-10-24T15:46:47.630Z,1.10
2022-10-24T15:49:16.429Z,1.07
2022-10-24T15:51:49.976Z,1.53
2022-10-24T15:54:19.941Z,1.70
2022-10-24T15:56:48.513Z,4.07
2022-10-24T15:59:17.639Z,2.73
2022-10-24T16:01:47.465Z,3.07
2022-10-24T16:04:16.333Z,2.13
2022-10-24T16:06:45.994Z,2.10
2022-10-24T16:09:15.394Z,3.40
2022-10-24T16:11:43.637Z,4.10
2022-10-24T16:14:13.811Z,2.93
2022-10-24T16:16:42.185Z,1.43
2022-10-24T16:19:10.631Z,1.30
2022-10-24T16:21:39.415Z,1.57
2022-10-24T16:24:09.888Z,1.73
2022-10-24T16:26:38.526Z,2.63
2022-10-24T16:29:07.366Z,2.03
2022-10-24T16:31:35.636Z,1.80
2022-10-24T16:34:03.889Z,1.97
2022-10-24T16:36:32.711Z,2.03
2022-10-24T16:39:00.998Z,1.63
2022-10-24T16:41:30.623Z,1.53
2022-10-24T16:43:59.175Z,3.03
2022-10-24T16:46:28.718Z,2.70
2022-10-24T16:48:57.425Z,2.40
2022-10-24T16:51:27.350Z,2.80
2022-10-24T16:53:55.616Z,3.33
2022-10-24T16:56:23.925Z,2.87
2022-10-24T16:58:53.576Z,2.73
2022-10-24T17:01:23.229Z,3.20
2022-10-24T17:03:51.584Z,2.50
2022-10-24T17:06:20.261Z,4.53
2022-10-24T17:08:48.512Z,7.03
2022-10-24T17:11:43.441Z,8.00
2022-10-24T17:16:34.685Z,6.50
2022-10-24T17:19:15.684Z,7.37
2022-10-24T17:21:44.430Z,5.63
2022-10-24T17:24:13.463Z,6.77
2022-10-24T17:26:42.119Z,3.27
2022-10-24T17:29:13.970Z,2.37
2022-10-24T17:31:42.346Z,2.03
2022-10-24T17:34:11.180Z,2.40
2022-10-24T17:36:40.819Z,3.07
2022-10-24T17:39:13.373Z,2.67
2022-10-24T17:41:42.183Z,2.47
2022-10-24T17:44:16.105Z,4.20
2022-10-24T17:46:44.620Z,4.23
2022-10-24T17:49:17.823Z,3.33
2022-10-24T17:51:50.227Z,4.20
2022-10-24T17:54:18.651Z,4.80
2022-10-24T17:56:46.980Z,5.67
2022-10-24T17:59:16.627Z,4.97
2022-10-24T18:01:45.136Z,3.87
2022-10-24T18:04:13.530Z,4.53
2022-10-24T18:06:43.463Z,3.53
2022-10-24T18:09:12.265Z,2.53
2022-10-24T18:11:40.751Z,1.87
2022-10-24T18:14:09.245Z,1.67
2022-10-24T18:16:39.404Z,1.70
2022-10-24T18:19:08.155Z,2.83
2022-10-24T18:21:36.535Z,3.53
2022-10-24T18:24:06.887Z,4.00
2022-10-24T18:26:35.321Z,1.53
2022-10-24T18:29:03.619Z,1.90
2022-10-24T18:31:34.007Z,2.20
2022-10-24T18:34:07.674Z,1.40
2022-10-24T18:36:37.415Z,1.27
2022-10-24T18:39:05.881Z,1.30
2022-10-24T18:41:39.730Z,2.83
2022-10-24T18:44:18.811Z,2.13
2022-10-24T18:46:47.460Z,1.50
2022-10-24T18:49:17.437Z,1.00
2022-10-24T18:51:52.005Z,0.97
2022-10-24T18:54:21.627Z,1.27
2022-10-24T18:56:50.224Z,0.83
2022-10-24T18:59:19.403Z,0.80
2022-10-24T19:01:50.985Z,1.33
2022-10-24T19:04:22.414Z,0.90
2022-10-24T19:06:52.038Z,0.93
2022-10-24T19:09:21.335Z,0.70
2022-10-24T19:11:50.897Z,0.93
2022-10-24T19:14:19.380Z,1.30
2022-10-24T19:16:50.398Z,1.10
2022-10-24T19:19:22.366Z,1.00
2022-10-24T19:21:52.059Z,1.20
2022-10-24T19:24:20.474Z,0.80
2022-10-24T19:26:49.881Z,0.60
2022-10-24T19:29:18.288Z,0.73
2022-10-24T19:31:47.038Z,0.90
2022-10-24T19:34:15.375Z,0.70
2022-10-24T19:36:43.745Z,0.70
2022-10-24T19:39:13.487Z,0.73
2022-10-24T19:41:42.353Z,0.60
2022-10-24T19:44:10.616Z,1.00
2022-10-24T19:46:38.898Z,1.13
2022-10-24T19:49:07.453Z,1.30
2022-10-24T19:51:35.763Z,1.10
2022-10-24T19:54:04.039Z,1.20
2022-10-24T19:56:33.651Z,0.80
2022-10-24T19:59:02.057Z,1.23
2022-10-24T20:01:31.380Z,0.83
2022-10-24T20:04:02.102Z,1.50
2022-10-24T20:06:30.421Z,0.70
2022-10-24T20:08:58.709Z,0.90
2022-10-24T20:11:26.970Z,1.13
2022-10-24T20:13:56.637Z,1.07
2022-10-24T20:16:24.948Z,0.60
2022-10-24T20:18:53.231Z,0.90
2022-10-24T20:21:21.492Z,0.60
2022-10-24T20:23:50.262Z,0.63
2022-10-24T20:26:20.523Z,0.80
2022-10-24T20:28:50.857Z,0.70
2022-10-24T20:31:21.961Z,0.70
2022-10-24T20:33:50.271Z,1.03
2022-10-24T20:36:18.548Z,0.93
2022-10-24T20:38:46.830Z,1.10
2022-10-24T20:41:15.108Z,0.67
2022-10-24T20:43:43.435Z,0.80
2022-10-24T20:46:12.854Z,1.00
2022-10-24T20:48:42.483Z,0.80
2022-10-24T20:51:11.486Z,0.67
2022-10-24T20:53:40.226Z,1.03
2022-10-24T20:56:09.265Z,0.90
2022-10-24T20:58:38.792Z,0.70
2022-10-24T21:01:07.895Z,0.60
2022-10-24T21:03:36.759Z,0.90
2022-10-24T21:06:07.215Z,0.87
2022-10-24T21:08:35.484Z,0.80
2022-10-24T21:11:06.742Z,0.70
2022-10-24T21:13:35.303Z,0.77
2022-10-24T21:16:04.064Z,1.30
2022-10-24T21:18:32.323Z,1.10
2022-10-24T21:21:00.606Z,0.83
2022-10-24T21:23:30.215Z,2.37
2022-10-24T21:26:02.878Z,0.60
2022-10-24T21:28:31.141Z,0.93
2022-10-24T21:30:59.421Z,0.90
2022-10-24T21:33:27.697Z,0.73
2022-10-24T21:35:55.928Z,0.87
2022-10-24T21:38:24.205Z,0.80
2022-10-24T21:41:02.918Z,0.90
2022-10-24T21:43:33.100Z,1.13
2022-10-24T21:46:05.571Z,0.80
2022-10-24T21:48:33.873Z,1.10
2022-10-24T21:51:06.158Z,1.00
2022-10-24T21:53:37.584Z,1.10
2022-10-24T21:56:08.291Z,0.87
2022-10-24T21:58:36.558Z,1.57
2022-10-24T22:01:10.218Z,1.37
2022-10-24T22:03:38.585Z,1.40
2022-10-24T22:06:07.133Z,0.80
2022-10-24T22:08:35.362Z,1.03
2022-10-24T22:11:04.413Z,0.80
2022-10-24T22:13:35.029Z,1.33
2022-10-24T22:16:03.336Z,0.90
2022-10-24T22:18:32.713Z,0.83
2022-10-24T22:21:01.368Z,0.97
2022-10-24T22:23:29.626Z,1.00
2022-10-24T22:25:58.571Z,1.00
2022-10-24T22:28:26.813Z,1.13
2022-10-24T22:30:56.821Z,0.83
2022-10-24T22:33:30.228Z,1.00
2022-10-24T22:35:59.755Z,1.10
2022-10-24T22:38:28.157Z,1.50
2022-10-24T22:40:56.729Z,1.50
2022-10-24T22:43:25.304Z,0.90
2022-10-24T22:46:01.808Z,1.07
2022-10-24T22:48:33.835Z,1.20
2022-10-24T22:51:02.156Z,1.00
2022-10-24T22:53:31.171Z,1.80
2022-10-24T22:56:17.494Z,0.70
2022-10-24T22:58:48.857Z,1.27
2022-10-24T23:01:32.143Z,1.20
2022-10-24T23:04:06.829Z,1.10
2022-10-24T23:06:39.093Z,1.37
2022-10-24T23:09:07.364Z,0.80
2022-10-24T23:11:35.737Z,1.67
2022-10-24T23:14:04.300Z,1.17
2022-10-24T23:16:36.650Z,1.37
2022-10-24T23:19:13.766Z,0.93
2022-10-24T23:21:47.234Z,0.97
2022-10-24T23:24:17.507Z,1.10
2022-10-24T23:26:48.648Z,1.53
2022-10-24T23:29:23.665Z,1.30
2022-10-24T23:31:52.094Z,1.30
2022-10-24T23:34:22.334Z,0.90
2022-10-24T23:36:51.140Z,1.27
2022-10-24T23:41:48.174Z,1.30
2022-10-24T23:44:16.750Z,0.90
2022-10-24T23:46:47.020Z,0.90
2022-10-24T23:49:22.141Z,0.70
2022-10-24T23:51:54.186Z,1.13
2022-10-24T23:54:26.085Z,0.90
2022-10-24T23:56:54.930Z,1.57
2022-10-24T23:59:23.158Z,0.80
